Latest Weather Observations for Arlington Reef

IDQ60801

Issued at 10:32 pm EST Sunday 19 April 2015 (issued every 30 minutes, with the page automatically refreshed every 10 minutes)

About weather observations | Map of weather stations | Latest weather observations for QLD | Other Formats
Station Details ID: 200879 Name: ARLINGTON REEF Lat: -16.72 Lon: 146.11 Height: 0.0 m
Data from the previous 72 hours. | See also: Recent months at Arlington Reef
Date/Time
EST
Temp
°C
App
Temp
°C
Dew
Point
Rel
Hum
%
Delta-T
°C
Wind Press
QNH
hPa
Press
MSL
hPa
Rain
since 9 am
mm
Dir
 
Spd
km/h
Gust
km/h
Spd
kts
Gust
kts
19/10:30pm - - - - - SE 32 37 17 20 1014.9 1014.9 -
19/10:00pm - - - - - SE 33 37 18 20 1014.6 1014.6 -
19/09:30pm - - - - - SE 33 39 18 21 1014.4 1014.4 -
19/09:00pm - - - - - SSE 33 39 18 21 1014.1 1014.1 -
19/08:30pm - - - - - SSE 37 46 20 25 1013.6 1013.6 -
19/08:00pm - - - - - SSE 35 41 19 22 1013.3 1013.3 -
19/07:30pm - - - - - SSE 35 43 19 23 1013.0 1013.0 -
19/07:00pm - - - - - SSE 35 43 19 23 1012.6 1012.6 -
19/06:30pm - - - - - SSE 37 41 20 22 1012.4 1012.4 -
19/06:00pm - - - - - SSE 39 44 21 24 1012.3 1012.3 -
19/05:30pm - - - - - SSE 35 41 19 22 1012.4 1012.4 -
19/05:00pm - - - - - SSE 35 43 19 23 1011.9 1011.9 -
19/04:30pm - - - - - SSE 39 43 21 23 1011.7 1011.7 -
19/04:00pm - - - - - SSE 35 43 19 23 1012.0 1012.0 -
19/03:30pm - - - - - SSE 35 41 19 22 1012.4 1012.4 -
19/03:00pm - - - - - SSE 32 37 17 20 1012.6 1012.6 -
19/02:30pm - - - - - SSE 32 35 17 19 1012.8 1012.8 -
19/02:00pm - - - - - SSE 32 37 17 20 1013.0 1013.0 -
19/01:30pm - - - - - SSE 28 33 15 18 1013.3 1013.3 -
19/01:00pm - - - - - SSE 28 33 15 18 1013.9 1013.9 -
19/12:30pm - - - - - SE 30 35 16 19 1014.3 1014.3 -
19/12:00pm - - - - - SE 32 37 17 20 1014.7 1014.7 -
19/11:30am - - - - - SSE 32 35 17 19 1015.2 1015.2 -
19/11:00am - - - - - SE 30 35 16 19 1015.8 1015.8 -
19/10:30am - - - - - SE 33 39 18 21 1015.9 1015.9 -
19/10:00am - - - - - SE 32 37 17 20 1016.0 1016.0 -
19/09:30am - - - - - SE 33 37 18 20 1015.7 1015.7 -
19/09:00am - - - - - SE 33 39 18 21 1015.2 1015.2 -
19/08:30am - - - - - SE 33 39 18 21 1014.8 1014.8 -
19/08:00am - - - - - SE 35 43 19 23 1014.4 1014.4 -
19/07:30am - - - - - SE 35 41 19 22 1014.2 1014.2 -
19/07:00am - - - - - SE 37 41 20 22 1013.8 1013.8 -
19/06:30am - - - - - SE 37 43 20 23 1013.3 1013.3 -
19/06:00am - - - - - SE 35 43 19 23 1012.9 1012.9 -
19/05:30am - - - - - SE 35 43 19 23 1012.6 1012.6 -
19/05:00am - - - - - SE 37 44 20 24 1012.4 1012.4 -
19/04:30am - - - - - SE 30 35 16 19 1012.5 1012.5 -
19/04:00am - - - - - SE 32 37 17 20 1012.2 1012.2 -
19/03:30am - - - - - SE 33 39 18 21 1012.3 1012.3 -
19/03:00am - - - - - ESE 32 39 17 21 1012.5 1012.5 -
19/02:30am - - - - - ESE 35 41 19 22 1012.7 1012.7 -
19/02:00am - - - - - SE 30 33 16 18 1013.3 1013.3 -
19/01:30am - - - - - ESE 33 41 18 22 1013.6 1013.6 -
19/01:00am - - - - - ESE 32 35 17 19 1014.0 1014.0 -
19/12:30am - - - - - ESE 28 33 15 18 1014.4 1014.4 -
19/12:00am - - - - - ESE 33 39 18 21 1014.6 1014.6 -
 
Date/Time
EST
Temp
°C
App
Temp
°C
Dew
Point
Rel
Hum
%
Delta-T
°C
Wind Press
QNH
hPa
Press
MSL
hPa
Rain
since 9 am
mm
Dir
 
Spd
km/h
Gust
km/h
Spd
kts
Gust
kts
18/11:30pm - - - - - SE 33 37 18 20 1014.4 1014.4 -
18/11:00pm - - - - - SE 35 41 19 22 1014.4 1014.4 -
18/10:30pm - - - - - SE 35 43 19 23 1014.5 1014.5 -
18/10:00pm - - - - - SE 37 41 20 22 1014.3 1014.3 -
18/09:30pm - - - - - SE 33 39 18 21 1014.7 1014.7 -
18/09:00pm - - - - - SE 32 37 17 20 1014.6 1014.6 -
18/08:30pm - - - - - SE 33 39 18 21 1014.5 1014.5 -
18/08:00pm - - - - - SE 33 37 18 20 1014.3 1014.3 -
18/07:30pm - - - - - ESE 30 33 16 18 1014.1 1014.1 -
18/07:00pm - - - - - SE 33 37 18 20 1013.6 1013.6 -
18/06:30pm - - - - - SE 32 37 17 20 1013.2 1013.2 -
18/06:00pm - - - - - SE 35 43 19 23 1013.2 1013.2 -
18/05:30pm - - - - - SE 37 41 20 22 1012.8 1012.8 -
18/05:00pm - - - - - SE 35 41 19 22 1012.5 1012.5 -
18/04:30pm - - - - - SE 35 43 19 23 1011.8 1011.8 -
18/04:00pm - - - - - SE 35 41 19 22 1012.0 1012.0 -
18/03:30pm - - - - - ESE 33 39 18 21 1012.2 1012.2 -
18/03:00pm - - - - - SE 35 41 19 22 1011.7 1011.7 -
18/02:30pm - - - - - SE 30 37 16 20 1012.1 1012.1 -
18/02:00pm - - - - - SE 33 39 18 21 1012.5 1012.5 -
18/01:30pm - - - - - SE 32 37 17 20 1013.0 1013.0 -
18/01:00pm - - - - - SE 32 39 17 21 1013.3 1013.3 -
18/12:30pm - - - - - ESE 35 41 19 22 1013.4 1013.4 -
18/12:00pm - - - - - ESE 32 37 17 20 1013.6 1013.6 -
18/11:30am - - - - - ESE 33 41 18 22 1014.3 1014.3 -
18/11:00am - - - - - ESE 33 41 18 22 1014.7 1014.7 -
18/10:53am - - - - - ESE 32 41 17 22 1014.7 1014.7 -
18/10:30am - - - - - SE 19 22 10 12 1015.3 1015.3 -
18/10:00am - - - - - SE 32 39 17 21 1015.3 1015.3 -
18/09:30am - - - - - ESE 32 39 17 21 1015.0 1015.0 -
18/09:00am - - - - - ESE 33 41 18 22 1014.6 1014.6 -
18/08:30am - - - - - SE 35 44 19 24 1014.1 1014.1 -
18/08:00am - - - - - SE 28 37 15 20 1013.6 1013.6 -
18/07:30am - - - - - SE 26 32 14 17 1013.5 1013.5 -
18/07:00am - - - - - SE 30 35 16 19 1013.2 1013.2 -
18/06:30am - - - - - SE 32 46 17 25 1012.9 1012.9 -
18/06:00am - - - - - ESE 35 41 19 22 1013.0 1013.0 -
18/05:30am - - - - - SSE 35 43 19 23 1012.6 1012.6 -
18/05:00am - - - - - SE 37 43 20 23 1012.2 1012.2 -
18/04:30am - - - - - SSE 37 46 20 25 1012.3 1012.3 -
18/04:00am - - - - - SE 33 41 18 22 1012.3 1012.3 -
18/03:30am - - - - - ESE 33 39 18 21 1012.4 1012.4 -
18/03:00am - - - - - ESE 44 52 24 28 1012.3 1012.3 -
18/02:30am - - - - - SE 44 57 24 31 1012.4 1012.4 -
18/02:26am - - - - - SE 44 57 24 31 1012.2 1012.2 -
18/02:00am - - - - - SSE 37 48 20 26 1012.4 1012.4 -
18/01:30am - - - - - SSE 30 37 16 20 1013.0 1013.0 -
18/01:00am - - - - - SE 37 41 20 22 1013.7 1013.7 -
18/12:30am - - - - - SSE 37 44 20 24 1013.9 1013.9 -
18/12:00am - - - - - SE 35 41 19 22 1014.1 1014.1 -
 
Date/Time
EST
Temp
°C
App
Temp
°C
Dew
Point
Rel
Hum
%
Delta-T
°C
Wind Press
QNH
hPa
Press
MSL
hPa
Rain
since 9 am
mm
Dir
 
Spd
km/h
Gust
km/h
Spd
kts
Gust
kts
17/11:30pm - - - - - SE 35 41 19 22 1014.2 1014.2 -
17/11:00pm - - - - - SE 37 43 20 23 1014.4 1014.4 -
17/10:30pm - - - - - SE 35 43 19 23 1014.6 1014.6 -
17/10:00pm - - - - - SE 37 43 20 23 1014.6 1014.6 -
17/09:30pm - - - - - SE 39 46 21 25 1014.5 1014.5 -
17/09:00pm - - - - - SE 37 44 20 24 1014.3 1014.3 -
17/08:30pm - - - - - SE 33 39 18 21 1014.2 1014.2 -
17/08:00pm - - - - - SE 37 43 20 23 1013.9 1013.9 -
17/07:30pm - - - - - SE 37 43 20 23 1013.5 1013.5 -
17/07:00pm - - - - - SE 39 48 21 26 1013.2 1013.2 -
17/06:30pm - - - - - SE 39 44 21 24 1012.9 1012.9 -
17/06:00pm - - - - - SE 39 46 21 25 1012.7 1012.7 -
17/05:30pm - - - - - SE 37 43 20 23 1012.7 1012.7 -
17/05:00pm - - - - - SE 39 50 21 27 1012.6 1012.6 -
17/04:30pm - - - - - SE 37 44 20 24 1012.6 1012.6 -
17/04:00pm - - - - - SE 32 39 17 21 1012.6 1012.6 -
17/03:30pm - - - - - SE 46 57 25 31 1012.3 1012.3 -
17/03:26pm - - - - - SE 50 57 27 31 1012.4 1012.4 -
17/03:00pm - - - - - ESE 43 54 23 29 1012.7 1012.7 -
17/02:32pm - - - - - SE 33 50 18 27 1012.8 1012.8 -
17/02:30pm - - - - - SE 33 41 18 22 1013.0 1013.0 -
17/02:00pm - - - - - SSE 35 41 19 22 1013.2 1013.2 -
17/01:30pm - - - - - SE 37 50 20 27 1013.4 1013.4 -
17/01:00pm - - - - - SE 44 54 24 29 1013.7 1013.7 -
17/12:30pm - - - - - SE 37 46 20 25 1014.0 1014.0 -
17/12:00pm - - - - - SE 37 50 20 27 1014.7 1014.7 -
17/11:30am - - - - - ESE 46 57 25 31 1015.1 1015.1 -
17/11:17am - - - - - E 39 57 21 31 1015.1 1015.1 -
17/11:08am - - - - - ESE 35 46 19 25 1015.3 1015.3 -
17/11:00am - - - - - SE 35 46 19 25 1015.6 1015.6 -
17/10:52am - - - - - SE 37 57 20 31 1015.7 1015.7 -
17/10:30am - - - - - SE 41 50 22 27 1015.8 1015.8 -
17/10:00am - - - - - SE 41 50 22 27 1015.8 1015.8 -
17/09:30am - - - - - SE 43 50 23 27 1016.1 1016.1 -
17/09:00am - - - - - SE 41 57 22 31 1016.0 1016.0 -
17/08:55am - - - - - SSE 35 57 19 31 1015.8 1015.8 -
17/08:30am - - - - - SSE 35 43 19 23 1016.0 1016.0 -
17/08:00am - - - - - SE 35 43 19 23 1015.9 1015.9 -
17/07:30am - - - - - SE 41 48 22 26 1015.6 1015.6 -
17/07:00am - - - - - SE 37 46 20 25 1015.2 1015.2 -
17/06:30am - - - - - SE 39 46 21 25 1014.9 1014.9 -
17/06:00am - - - - - SE 41 48 22 26 1014.5 1014.5 -
17/05:30am - - - - - SE 39 46 21 25 1014.2 1014.2 -
17/05:00am - - - - - SE 41 48 22 26 1014.0 1014.0 -
17/04:30am - - - - - SE 43 50 23 27 1013.8 1013.8 -
17/04:00am - - - - - SE 41 50 22 27 1013.7 1013.7 -
17/03:30am - - - - - SE 39 46 21 25 1013.8 1013.8 -
17/03:00am - - - - - SE 43 48 23 26 1013.8 1013.8 -
17/02:30am - - - - - SE 41 48 22 26 1014.2 1014.2 -
17/02:00am - - - - - SE 43 50 23 27 1014.6 1014.6 -
17/01:30am - - - - - SE 39 46 21 25 1015.1 1015.1 -
17/01:00am - - - - - SE 39 46 21 25 1015.5 1015.5 -
17/12:30am - - - - - SE 44 50 24 27 1015.9 1015.9 -
17/12:00am - - - - - SE 39 46 21 25 1016.2 1016.2 -
 
Date/Time
EST
Temp
°C
App
Temp
°C
Dew
Point
Rel
Hum
%
Delta-T
°C
Wind Press
QNH
hPa
Press
MSL
hPa
Rain
since 9 am
mm
Dir
 
Spd
km/h
Gust
km/h
Spd
kts
Gust
kts
16/11:30pm - - - - - SE 39 46 21 25 1016.7 1016.7 -
16/11:00pm - - - - - SE 39 43 21 23 1016.8 1016.8 -

Other Formats:

Comma delimited format used in spreadsheet applications
http://www.bom.gov.au/fwo/IDQ60801/IDQ60801.94284.axf

JavaScript Object Notation format (JSON) in row-major order
http://www.bom.gov.au/fwo/IDQ60801/IDQ60801.94284.json